Station: Cape Otway  

  Atmospheric Gas Attenuation - ITU Rec 676-11   ----------------- dB/100km -----------------
Date Time Temp RH % AH g/m3 Dew Point Wind Direction Speed kph Gust kph Barometer mB Rainfall Since 9am 24GHz 47GHz 76GHz 122GHz 134GHz 241GHz
08/05 12:30 13.2 82 9.42 10.2 37 54 1024 0 21.4 27.8 44.0 115.4 111.2 383.1
08/05 12:20 14.2 81 9.89 11 35 39 1024.2 0 22.3 28.3 45.4 119.2 116.3 400.9
08/05 12:10 13.3 84 9.71 10.7 26 32 1024.2 0 22.0 28.3 45.2 118.6 115.1 396.8
08/05 12:00 12.6 85 9.4 10.1 35 52 1024.2 0 21.3 28.0 44.2 116.1 111.8 385.2
08/05 11:50 13.8 82 9.77 10.8 28 32 1024.2 0 22.1 28.3 45.1 118.5 115.2 397.1
08/05 11:40 13.7 82 9.71 10.7 37 43 1024.2 0 22.0 28.2 44.9 118.0 114.5 394.7
08/05 11:30 14.4 79 9.77 10.8 35 52 1024 0 22.0 28.1 44.8 117.6 114.3 394.0
08/05 11:20 13.7 79 9.36 10.1 30 35 1024 0 21.2 27.6 43.5 114.0 109.7 377.8
08/05 11:10 13.7 79 9.36 10.1 37 44 1024 0 21.2 27.6 43.5 114.0 109.7 377.8
08/05 11:00 13.9 76 9.11 9.7 43 54 1023.9 0 20.7 27.1 42.3 111.0 106.0 364.9
08/05 10:50 14.1 75 9.1 9.7 35 41 1023.9 0 20.6 27.0 42.2 110.6 105.6 363.5
08/05 10:40 14.1 81 9.83 10.9 30 39 1023.7 0 22.2 28.2 45.2 118.7 115.5 398.4
08/05 10:30 14 77 9.29 10 37 52 1023.5 0 21.0 27.4 43.0 112.8 108.3 372.9
08/05 10:20 13.8 79 9.41 10.2 35 43 1023.5 0 21.3 27.6 43.6 114.4 110.2 379.6
08/05 10:10 13.9 76 9.11 9.7 43 52 1023.5 0 20.7 27.1 42.3 110.9 105.9 364.8
08/05 10:00 14 77 9.29 10 39 56 1023.3 0 21.0 27.3 43.0 112.8 108.2 372.8
08/05 09:50 14.1 77 9.35 10.1 43 50 1023.1 0 21.2 27.4 43.1 113.3 108.9 375.1
08/05 09:40 14.1 77 9.35 10.1 33 41 1022.9 0 21.2 27.4 43.1 113.2 108.9 375.1
08/05 09:30 13.9 77 9.23 9.9 37 56 1023.1 0 20.9 27.3 42.8 112.2 107.5 370.4
08/05 09:20 14 76 9.17 9.8 33 43 1023.1 0 20.8 27.1 42.5 111.4 106.6 367.1
08/05 09:10 13.8 78 9.29 10 39 48 1022.9 0 21.1 27.4 43.1 113.0 108.5 373.7
08/05 09:00 13.8 76 9.06 9.6 39 54 1022.7 0 20.6 27.0 42.1 110.4 105.3 362.7
08/05 08:50 13.8 79 9.41 10.2 35 46 1022.3 3.4 21.3 27.6 43.5 114.3 110.1 379.2
08/05 08:40 13.7 82 9.71 10.7 32 41 1022.2 3.4 22.0 28.1 44.8 117.8 114.3 394.1
08/05 08:30 13.5 84 9.83 10.9 33 50 1021.7 3.4 22.2 28.4 45.4 119.4 116.3 400.8
08/05 08:20 13 86 9.75 10.7 39 46 1021.9 3.4 22.1 28.4 45.4 119.2 115.9 399.5
08/05 08:10 13.3 87 10.05 11.2 39 46 1021.7 3.4 22.7 28.8 46.5 122.2 119.6 412.6
08/05 08:00 13.2 87 9.99 11.1 35 52 1021.6 3.4 22.6 28.7 46.3 121.6 118.9 410.2
08/05 07:50 13.2 86 9.88 10.9 43 54 1021.5 3.4 22.4 28.5 45.8 120.4 117.4 404.8
08/05 07:40 12.8 89 9.97 11 35 50 1021.6 3.4 22.6 28.8 46.4 122.0 119.3 411.3
08/05 07:30 13.3 88 10.17 11.4 44 61 1021.5 3.4 23.0 29.0 47.0 123.5 121.3 418.5
08/05 07:20 13.4 83 9.65 10.6 48 57 1021.3 3.4 21.8 28.1 44.7 117.4 113.9 392.4
08/05 07:10 13.5 84 9.83 10.9 43 50 1021.3 3.4 22.2 28.3 45.4 119.3 116.2 400.7
08/05 07:00 13.4 84 9.77 10.8 39 57 1021.1 3.4 22.1 28.3 45.2 118.8 115.5 398.2
08/05 06:50 13.7 85 10.07 11.2 33 46 1021.2 3.4 22.7 28.7 46.3 121.7 119.3 411.3
08/05 06:40 13.3 85 9.82 10.8 39 44 1020.9 3.4 22.2 28.4 45.5 119.5 116.3 401.1
08/05 06:30 13.1 86 9.81 10.8 48 61 1020.9 3.4 22.2 28.4 45.5 119.6 116.5 401.7
08/05 06:20 13.4 88 10.23 11.5 39 48 1020.9 3.4 23.1 29.0 47.2 124.0 122.0 420.7
08/05 06:10 13.2 86 9.88 10.9 37 44 1020.7 3.4 22.4 28.5 45.8 120.3 117.3 404.5
08/05 06:00 13.2 86 9.88 10.9 39 54 1020.6 3.4 22.4 28.5 45.8 120.3 117.3 404.5
08/05 05:50 13.1 87 9.93 11 35 44 1020.6 3.4 22.5 28.6 46.0 121.0 118.2 407.4
08/05 05:40 13.2 89 10.22 11.4 33 41 1020.4 3.4 23.1 29.1 47.2 124.1 122.1 421.2
08/05 05:30 12.9 88 9.92 11 41 57 1020.2 3.4 22.5 28.6 46.1 121.1 118.3 407.9
08/05 05:20 13 90 10.21 11.4 44 52 1020.2 3.4 23.1 29.1 47.3 124.3 122.2 421.7
08/05 05:10 12.9 92 10.37 11.6 46 56 1020.1 3.4 23.4 29.4 48.0 126.3 124.7 430.2
08/05 05:00 12.7 91 10.13 11.3 48 72 1020 3.2 22.9 29.1 47.1 123.8 121.6 419.3
08/05 04:50 13.3 87 10.05 11.2 46 65 1019.9 3 22.7 28.7 46.4 122.0 119.5 412.1
08/05 04:40 13.3 88 10.17 11.4 50 63 1019.8 3 23.0 28.9 46.9 123.3 121.2 417.9
08/05 04:30 13.1 90 10.27 11.5 44 59 1019.7 3 23.2 29.2 47.5 124.8 122.9 423.9
08/05 04:20 13.1 90 10.27 11.5 48 61 1019.5 3 23.2 29.2 47.4 124.8 122.9 423.9
08/05 04:10 12.9 91 10.26 11.5 43 57 1019.5 3 23.2 29.2 47.5 125.0 123.0 424.5
08/05 04:00 12.6 90 9.96 11 46 72 1019.4 3 22.6 28.8 46.4 122.0 119.2 411.2
08/05 03:50 13.4 91 10.58 12 37 54 1019.3 3 23.8 29.6 48.6 127.8 126.8 437.6
08/05 03:40 13 92 10.43 11.7 46 57 1019.3 3 23.5 29.5 48.2 126.7 125.3 432.3
08/05 03:30 13.2 92 10.56 11.9 46 67 1019.1 3 23.8 29.6 48.6 127.9 126.8 437.6
08/05 03:20 13 94 10.66 12.1 48 65 1018.9 2.8 24.0 29.9 49.2 129.4 128.6 443.7
08/05 03:10 12.8 92 10.31 11.5 46 57 1019 2.8 23.3 29.3 47.8 125.6 123.9 427.4
08/05 03:00 13.1 89 10.16 11.3 44 69 1018.8 2.6 23.0 28.9 46.9 123.4 121.2 418.2
08/05 02:50 13.6 89 10.47 11.8 43 57 1018.8 2.6 23.6 29.3 48.0 126.2 124.8 430.8
08/05 02:40 12.9 91 10.26 11.5 39 52 1019 2.6 23.2 29.2 47.5 124.9 123.0 424.3
08/05 02:30 13.4 87 10.11 11.3 48 72 1019.1 2.6 22.8 28.8 46.6 122.4 120.1 414.2
08/05 02:20 13.4 87 10.11 11.3 43 56 1019 2.4 22.8 28.8 46.6 122.4 120.1 414.2
08/05 02:10 13.9 85 10.19 11.4 43 59 1018.9 2.4 23.0 28.7 46.6 122.5 120.4 415.4
08/05 02:00 13.5 86 10.06 11.2 43 65 1018.9 2.4 22.7 28.6 46.3 121.6 119.2 411.2
08/05 01:50 13.9 84 10.07 11.2 44 63 1018.8 2.4 22.7 28.5 46.1 121.1 118.7 409.5
08/05 01:40 13.8 83 9.89 11 44 57 1018.9 2.4 22.3 28.3 45.4 119.3 116.4 401.3
08/05 01:30 13.8 84 10.01 11.1 43 65 1019.2 2.4 22.6 28.5 45.9 120.6 118.1 407.2
08/05 01:20 13.5 87 10.18 11.4 43 61 1019.4 2.4 23.0 28.9 46.8 123.1 120.9 417.2
08/05 01:10 13.8 88 10.49 11.8 43 54 1019.5 2.4 23.6 29.3 48.0 126.2 124.9 430.9
08/05 01:00 13.8 85 10.13 11.3 44 61 1019.5 2.4 22.9 28.7 46.4 122.0 119.8 413.2
08/05 00:50 13.7 87 10.3 11.6 48 56 1019.6 2.4 23.2 29.0 47.2 124.1 122.3 422.1
08/05 00:40 13.4 89 10.35 11.6 44 54 1019.6 2.4 23.4 29.2 47.6 125.2 123.5 426.2
08/05 00:30 13.3 91 10.51 11.9 43 56 1019.6 2.4 23.7 29.5 48.4 127.2 126.0 434.8
08/05 00:20 13.5 86 10.06 11.2 41 52 1019.7 2.4 22.7 28.7 46.3 121.7 119.3 411.4
08/05 00:10 13.5 88 10.29 11.6 43 50 1019.8 2.4 23.2 29.1 47.3 124.4 122.5 422.8
08/05 00:00 13.4 88 10.23 11.5 41 57 1019.8 2.4 23.1 29.0 47.1 123.8 121.8 420.4
07/05 23:50 13.3 88 10.17 11.4 41 50 1019.8 2.4 23.0 28.9 46.9 123.3 121.2 417.9
07/05 23:40 13.4 87 10.11 11.3 46 59 1019.9 2.4 22.8 28.8 46.6 122.5 120.2 414.5
07/05 23:30 13.2 91 10.45 11.8 39 56 1020.1 2.4 23.6 29.5 48.2 126.7 125.3 432.5
07/05 23:20 12.8 91 10.19 11.4 44 57 1020.1 2.4 23.0 29.1 47.3 124.4 122.3 421.7
07/05 23:10 13.2 91 10.45 11.8 41 48 1020.1 2.4 23.6 29.5 48.2 126.7 125.3 432.5
07/05 23:00 13.2 90 10.33 11.6 43 59 1020.1 2.4 23.3 29.3 47.7 125.4 123.6 426.5
07/05 22:50 12.9 90 10.14 11.3 44 59 1020.1 2.4 22.9 29.0 47.0 123.6 121.4 418.7
07/05 22:40 13.6 88 10.36 11.7 46 59 1020.1 2.4 23.4 29.2 47.6 125.1 123.4 425.8
07/05 22:30 13.1 90 10.27 11.5 41 61 1020.3 2.4 23.2 29.2 47.5 124.9 122.9 424.1
07/05 22:20 13.1 92 10.5 11.8 41 56 1020.6 2.2 23.7 29.6 48.5 127.6 126.3 435.7
07/05 22:10 12.9 93 10.48 11.8 46 54 1020.6 2.2 23.7 29.6 48.5 127.7 126.3 435.8
07/05 22:00 12.9 93 10.48 11.8 43 67 1020.5 2.2 23.7 29.6 48.5 127.6 126.3 435.8
07/05 21:50 12.7 92 10.24 11.4 46 54 1020.5 2.2 23.2 29.3 47.6 125.2 123.2 424.9
07/05 21:40 12.6 92 10.18 11.3 48 59 1020.5 2.2 23.0 29.2 47.4 124.6 122.5 422.5
07/05 21:30 12.7 92 10.24 11.4 44 63 1020.5 2.2 23.2 29.3 47.6 125.2 123.2 424.9
07/05 21:20 13 91 10.32 11.6 39 56 1020.6 2 23.3 29.3 47.8 125.6 123.8 427.3
07/05 21:10 12.6 91 10.07 11.2 43 50 1020.5 2 22.8 29.0 46.9 123.4 120.9 417.0
07/05 21:00 13 88 9.98 11.1 46 63 1020.3 1.8 22.6 28.7 46.3 121.7 119.0 410.3
07/05 20:50 12.9 88 9.92 11 44 57 1020.4 1.8 22.5 28.7 46.1 121.2 118.3 407.9
07/05 20:40 12.6 90 9.96 11 39 48 1020.4 1.8 22.6 28.8 46.5 122.1 119.3 411.5
07/05 20:30 12.3 91 9.88 10.9 44 59 1020.4 1.8 22.4 28.8 46.3 121.6 118.7 409.1
07/05 20:20 12.4 91 9.94 11 39 52 1020.4 1.8 22.5 28.9 46.5 122.2 119.4 411.6
07/05 20:10 12.3 90 9.77 10.7 44 63 1020.4 1.8 22.2 28.6 45.8 120.4 117.1 403.7
07/05 20:00 12.2 90 9.71 10.6 46 63 1020.5 1.8 22.0 28.5 45.6 119.9 116.4 401.3

Last Refresh: 08-May-2026 12:08:18

Bureau of Meteorology